WZZ4NT EKBI-EYVI
Flight info
| Callsign | WZZ4NT |
|---|---|
| Flight time | 1h 37m |
| Altitude | 37000 |
| Route | RIDSI L975 ODDON DCT NINTA DCT ADAXA DCT VAGVO DCT OTNAV |
| Aircraft | A321/M-SDE1E2E3FGIJ1J4RWXY/LB1 |
Departure
| Time | 2026-04-29 17:42 |
|---|---|
| Airport | Billund Airport (EKBI) |
Arrival
| Time | 2026-04-29 19:19 |
|---|---|
| Airport | Vilnius International Airport (EYVI) |
| Time | Latitude | Longitude | Altitude | Speed | Heading |
|---|---|---|---|---|---|
| 2026-04-29 17:14 | 55.74393 | 9.14732 | 223 ft | 0 kts | 175° |
| 2026-04-29 17:32 | 55.74394 | 9.14732 | 216 ft | 2 kts | 175° |
| 2026-04-29 17:32 | 55.74419 | 9.14728 | 221 ft | 4 kts | 175° |
| 2026-04-29 17:33 | 55.74446 | 9.14725 | 217 ft | 4 kts | 175° |
| 2026-04-29 17:33 | 55.74456 | 9.14723 | 217 ft | 0 kts | 175° |
| 2026-04-29 17:35 | 55.74454 | 9.14724 | 217 ft | 1 kts | 175° |
| 2026-04-29 17:36 | 55.74448 | 9.14740 | 228 ft | 3 kts | 109° |
| 2026-04-29 17:36 | 55.74451 | 9.14848 | 216 ft | 13 kts | 88° |
| 2026-04-29 17:36 | 55.74410 | 9.14976 | 218 ft | 13 kts | 162° |
| 2026-04-29 17:36 | 55.74312 | 9.14987 | 216 ft | 15 kts | 177° |
| 2026-04-29 17:37 | 55.74216 | 9.15013 | 218 ft | 13 kts | 145° |
| 2026-04-29 17:37 | 55.74201 | 9.15175 | 216 ft | 15 kts | 86° |
| 2026-04-29 17:37 | 55.74207 | 9.15368 | 216 ft | 17 kts | 87° |
| 2026-04-29 17:37 | 55.74213 | 9.15583 | 216 ft | 18 kts | 87° |
| 2026-04-29 17:38 | 55.74220 | 9.15817 | 223 ft | 19 kts | 87° |
| 2026-04-29 17:38 | 55.74228 | 9.16058 | 216 ft | 20 kts | 86° |
| 2026-04-29 17:38 | 55.74236 | 9.16294 | 224 ft | 18 kts | 86° |
| 2026-04-29 17:38 | 55.74244 | 9.16528 | 216 ft | 20 kts | 87° |
| 2026-04-29 17:39 | 55.74251 | 9.16784 | 225 ft | 22 kts | 87° |
| 2026-04-29 17:39 | 55.74260 | 9.17059 | 216 ft | 23 kts | 86° |
| 2026-04-29 17:39 | 55.74268 | 9.17354 | 216 ft | 25 kts | 87° |
| 2026-04-29 17:39 | 55.74276 | 9.17619 | 216 ft | 19 kts | 86° |
| 2026-04-29 17:40 | 55.74284 | 9.17850 | 216 ft | 18 kts | 87° |
| 2026-04-29 17:40 | 55.74280 | 9.18049 | 216 ft | 13 kts | 107° |
| 2026-04-29 17:40 | 55.74234 | 9.18132 | 221 ft | 2 kts | 159° |
| 2026-04-29 17:40 | 55.74223 | 9.18139 | 221 ft | 3 kts | 162° |
| 2026-04-29 17:41 | 55.74195 | 9.18148 | 217 ft | 5 kts | 174° |
| 2026-04-29 17:41 | 55.74151 | 9.18146 | 223 ft | 7 kts | 188° |
| 2026-04-29 17:41 | 55.74124 | 9.18073 | 216 ft | 10 kts | 264° |
| 2026-04-29 17:41 | 55.74111 | 9.17653 | 216 ft | 73 kts | 267° |
| 2026-04-29 17:42 | 55.74071 | 9.16304 | 219 ft | 143 kts | 267° |
| 2026-04-29 17:42 | 55.74015 | 9.14433 | 763 ft | 156 kts | 269° |
| 2026-04-29 17:42 | 55.74055 | 9.12425 | 1424 ft | 166 kts | 291° |
| 2026-04-29 17:42 | 55.74829 | 9.10974 | 2199 ft | 170 kts | 335° |
| 2026-04-29 17:43 | 55.76040 | 9.10699 | 2662 ft | 192 kts | 12° |
| 2026-04-29 17:43 | 55.77254 | 9.11971 | 2962 ft | 219 kts | 41° |
| 2026-04-29 17:43 | 55.78452 | 9.13940 | 3400 ft | 244 kts | 43° |
| 2026-04-29 17:43 | 55.79713 | 9.16033 | 4105 ft | 255 kts | 43° |
| 2026-04-29 17:44 | 55.81032 | 9.18226 | 5079 ft | 257 kts | 43° |
| 2026-04-29 17:44 | 55.82348 | 9.20404 | 6025 ft | 260 kts | 43° |
| 2026-04-29 17:44 | 55.83665 | 9.22575 | 6959 ft | 262 kts | 43° |
| 2026-04-29 17:44 | 55.84994 | 9.24797 | 7882 ft | 263 kts | 47° |
| 2026-04-29 17:45 | 55.85963 | 9.27547 | 8739 ft | 267 kts | 69° |
| 2026-04-29 17:45 | 55.86237 | 9.30830 | 9614 ft | 274 kts | 91° |
| 2026-04-29 17:45 | 55.85748 | 9.34161 | 10458 ft | 282 kts | 105° |
| 2026-04-29 17:45 | 55.85066 | 9.37513 | 10988 ft | 298 kts | 105° |
| 2026-04-29 17:46 | 55.84327 | 9.41113 | 11257 ft | 320 kts | 105° |
| 2026-04-29 17:46 | 55.83550 | 9.44881 | 11875 ft | 328 kts | 105° |
| 2026-04-29 17:46 | 55.82760 | 9.48707 | 12658 ft | 331 kts | 105° |
| 2026-04-29 17:46 | 55.81958 | 9.52563 | 13477 ft | 334 kts | 105° |
| 2026-04-29 17:47 | 55.81153 | 9.56448 | 14267 ft | 336 kts | 105° |
| 2026-04-29 17:47 | 55.80342 | 9.60363 | 14988 ft | 339 kts | 104° |
| 2026-04-29 17:47 | 55.79524 | 9.64321 | 15647 ft | 343 kts | 104° |
| 2026-04-29 17:47 | 55.78697 | 9.68331 | 16309 ft | 348 kts | 104° |
| 2026-04-29 17:48 | 55.77858 | 9.72393 | 16976 ft | 352 kts | 104° |
| 2026-04-29 17:48 | 55.77007 | 9.76499 | 17648 ft | 356 kts | 104° |
| 2026-04-29 17:48 | 55.76143 | 9.80654 | 18308 ft | 361 kts | 104° |
| 2026-04-29 17:48 | 55.75266 | 9.84847 | 18936 ft | 365 kts | 104° |
| 2026-04-29 17:49 | 55.74375 | 9.89097 | 19513 ft | 369 kts | 104° |
| 2026-04-29 17:49 | 55.73473 | 9.93387 | 20091 ft | 373 kts | 104° |
| 2026-04-29 17:49 | 55.72560 | 9.97718 | 20683 ft | 377 kts | 104° |
| 2026-04-29 17:49 | 55.71636 | 10.02089 | 21275 ft | 380 kts | 104° |
| 2026-04-29 17:50 | 55.70703 | 10.06499 | 21861 ft | 384 kts | 104° |
| 2026-04-29 17:50 | 55.69760 | 10.10948 | 22444 ft | 387 kts | 104° |
| 2026-04-29 17:50 | 55.68810 | 10.15439 | 23071 ft | 391 kts | 104° |
| 2026-04-29 17:50 | 55.67852 | 10.19968 | 23646 ft | 394 kts | 104° |
| 2026-04-29 17:51 | 55.66883 | 10.24536 | 24179 ft | 398 kts | 104° |
| 2026-04-29 17:51 | 55.65902 | 10.29140 | 24622 ft | 401 kts | 104° |
| 2026-04-29 17:51 | 55.64913 | 10.33775 | 25085 ft | 404 kts | 104° |
| 2026-04-29 17:51 | 55.63915 | 10.38430 | 25545 ft | 406 kts | 104° |
| 2026-04-29 17:52 | 55.62906 | 10.43118 | 26003 ft | 409 kts | 104° |
| 2026-04-29 17:52 | 55.62232 | 10.46239 | 26308 ft | 410 kts | 104° |
| 2026-04-29 17:52 | 55.60863 | 10.52570 | 26910 ft | 414 kts | 104° |
| 2026-04-29 17:52 | 55.59834 | 10.57338 | 27357 ft | 416 kts | 103° |
| 2026-04-29 17:53 | 55.59058 | 10.62223 | 27778 ft | 411 kts | 94° |
| 2026-04-29 17:53 | 55.58760 | 10.67198 | 28197 ft | 406 kts | 85° |
| 2026-04-29 17:53 | 55.58935 | 10.72142 | 28622 ft | 401 kts | 76° |
| 2026-04-29 17:53 | 55.59480 | 10.76973 | 29045 ft | 401 kts | 73° |
| 2026-04-29 17:54 | 55.60056 | 10.81816 | 29487 ft | 404 kts | 73° |
| 2026-04-29 17:54 | 55.60624 | 10.86695 | 29885 ft | 406 kts | 73° |
| 2026-04-29 17:54 | 55.61189 | 10.91602 | 30290 ft | 409 kts | 73° |
| 2026-04-29 17:54 | 55.61747 | 10.96477 | 30659 ft | 411 kts | 73° |
| 2026-04-29 17:55 | 55.62321 | 11.01511 | 31014 ft | 413 kts | 73° |
| 2026-04-29 17:55 | 55.62889 | 11.06498 | 31374 ft | 415 kts | 73° |
| 2026-04-29 17:55 | 55.63457 | 11.11516 | 31740 ft | 416 kts | 73° |
| 2026-04-29 17:55 | 55.64016 | 11.16472 | 32103 ft | 418 kts | 73° |
| 2026-04-29 17:56 | 55.64581 | 11.21507 | 32589 ft | 416 kts | 73° |
| 2026-04-29 17:56 | 55.65141 | 11.26509 | 33180 ft | 413 kts | 73° |
| 2026-04-29 17:56 | 55.65693 | 11.31468 | 33788 ft | 408 kts | 73° |
| 2026-04-29 17:56 | 55.66247 | 11.36438 | 34376 ft | 405 kts | 73° |
| 2026-04-29 17:57 | 55.66782 | 11.41248 | 34815 ft | 402 kts | 73° |
| 2026-04-29 17:57 | 55.67325 | 11.46114 | 35190 ft | 402 kts | 73° |
| 2026-04-29 17:57 | 55.67865 | 11.50976 | 35519 ft | 403 kts | 73° |
| 2026-04-29 17:57 | 55.68231 | 11.54275 | 35739 ft | 404 kts | 73° |
| 2026-04-29 17:58 | 55.68944 | 11.60750 | 36169 ft | 405 kts | 73° |
| 2026-04-29 17:58 | 55.69483 | 11.65655 | 36492 ft | 406 kts | 73° |
| 2026-04-29 17:58 | 55.70017 | 11.70574 | 36802 ft | 407 kts | 73° |
| 2026-04-29 17:58 | 55.70549 | 11.75506 | 37107 ft | 408 kts | 73° |
| 2026-04-29 17:59 | 55.70909 | 11.78836 | 37306 ft | 408 kts | 73° |
| 2026-04-29 17:59 | 55.71442 | 11.83795 | 37448 ft | 409 kts | 73° |
| 2026-04-29 17:59 | 55.71970 | 11.88747 | 37468 ft | 407 kts | 73° |
| 2026-04-29 18:00 | 55.73012 | 11.98582 | 37461 ft | 405 kts | 73° |
| 2026-04-29 18:00 | 55.74045 | 12.08418 | 37465 ft | 405 kts | 73° |
| 2026-04-29 18:01 | 55.75070 | 12.18260 | 37472 ft | 405 kts | 73° |
| 2026-04-29 18:01 | 55.76094 | 12.28109 | 37464 ft | 406 kts | 73° |
| 2026-04-29 18:02 | 55.77112 | 12.37974 | 37477 ft | 407 kts | 73° |
| 2026-04-29 18:02 | 55.78126 | 12.47864 | 37485 ft | 407 kts | 73° |
| 2026-04-29 18:03 | 55.79125 | 12.57730 | 37484 ft | 405 kts | 73° |
| 2026-04-29 18:03 | 55.80119 | 12.67582 | 37485 ft | 406 kts | 73° |
| 2026-04-29 18:04 | 55.81107 | 12.77461 | 37479 ft | 406 kts | 73° |
| 2026-04-29 18:04 | 55.82073 | 12.87285 | 37476 ft | 406 kts | 74° |
| 2026-04-29 18:05 | 55.83036 | 12.97186 | 37474 ft | 406 kts | 74° |
| 2026-04-29 18:05 | 55.84005 | 13.07143 | 37509 ft | 406 kts | 74° |
| 2026-04-29 18:06 | 55.84946 | 13.16934 | 37455 ft | 403 kts | 74° |
| 2026-04-29 18:06 | 55.85883 | 13.26762 | 37446 ft | 403 kts | 74° |
| 2026-04-29 18:07 | 55.86809 | 13.36607 | 37441 ft | 404 kts | 74° |
| 2026-04-29 18:07 | 55.87739 | 13.46495 | 37440 ft | 405 kts | 74° |
| 2026-04-29 18:08 | 55.88664 | 13.56414 | 37442 ft | 406 kts | 74° |
| 2026-04-29 18:08 | 55.89579 | 13.66350 | 37447 ft | 406 kts | 74° |
| 2026-04-29 18:09 | 55.90481 | 13.76260 | 37438 ft | 403 kts | 74° |
| 2026-04-29 18:09 | 55.91367 | 13.86129 | 37438 ft | 403 kts | 74° |
| 2026-04-29 18:10 | 55.92249 | 13.95996 | 37431 ft | 404 kts | 74° |
| 2026-04-29 18:10 | 55.93128 | 14.05888 | 37434 ft | 404 kts | 74° |
| 2026-04-29 18:11 | 55.94000 | 14.15795 | 37428 ft | 404 kts | 74° |
| 2026-04-29 18:11 | 55.94861 | 14.25701 | 37429 ft | 405 kts | 75° |
| 2026-04-29 18:12 | 55.95707 | 14.35610 | 37426 ft | 401 kts | 74° |
| 2026-04-29 18:12 | 55.96537 | 14.45427 | 37428 ft | 400 kts | 74° |
| 2026-04-29 18:13 | 55.97373 | 14.55254 | 37429 ft | 400 kts | 74° |
| 2026-04-29 18:13 | 55.98200 | 14.65096 | 37429 ft | 401 kts | 74° |
| 2026-04-29 18:14 | 55.99007 | 14.74897 | 37422 ft | 402 kts | 75° |
| 2026-04-29 18:14 | 55.99817 | 14.84781 | 37424 ft | 402 kts | 75° |
| 2026-04-29 18:15 | 56.00624 | 14.94682 | 37463 ft | 403 kts | 75° |
| 2026-04-29 18:15 | 56.01416 | 15.04586 | 37455 ft | 403 kts | 75° |
| 2026-04-29 18:16 | 56.02199 | 15.14511 | 37454 ft | 403 kts | 75° |
| 2026-04-29 18:16 | 56.02977 | 15.24449 | 37453 ft | 404 kts | 75° |
| 2026-04-29 18:17 | 56.03752 | 15.34393 | 37447 ft | 404 kts | 75° |
| 2026-04-29 18:17 | 56.04521 | 15.44337 | 37455 ft | 404 kts | 75° |
| 2026-04-29 18:18 | 56.05277 | 15.54292 | 37462 ft | 404 kts | 75° |
| 2026-04-29 18:18 | 56.06022 | 15.64213 | 37452 ft | 403 kts | 75° |
| 2026-04-29 18:19 | 56.06763 | 15.74149 | 37452 ft | 403 kts | 75° |
| 2026-04-29 18:19 | 56.07499 | 15.84092 | 37452 ft | 403 kts | 75° |
| 2026-04-29 18:20 | 56.08227 | 15.94060 | 37460 ft | 404 kts | 75° |
| 2026-04-29 18:20 | 56.08942 | 16.04032 | 37460 ft | 404 kts | 75° |
| 2026-04-29 18:21 | 56.09654 | 16.14032 | 37510 ft | 405 kts | 75° |
| 2026-04-29 18:21 | 56.10355 | 16.24019 | 37454 ft | 403 kts | 75° |
| 2026-04-29 18:22 | 56.11046 | 16.33997 | 37451 ft | 404 kts | 75° |
| 2026-04-29 18:22 | 56.11731 | 16.43999 | 37457 ft | 405 kts | 75° |
| 2026-04-29 18:23 | 56.12405 | 16.53955 | 37464 ft | 405 kts | 75° |
| 2026-04-29 18:23 | 56.13073 | 16.63976 | 37463 ft | 405 kts | 75° |
| 2026-04-29 18:24 | 56.13736 | 16.74016 | 37468 ft | 406 kts | 75° |
| 2026-04-29 18:24 | 56.14391 | 16.84065 | 37482 ft | 406 kts | 76° |
| 2026-04-29 18:25 | 56.15036 | 16.94113 | 37469 ft | 406 kts | 76° |
| 2026-04-29 18:25 | 56.15677 | 17.04171 | 37470 ft | 406 kts | 76° |
| 2026-04-29 18:26 | 56.16309 | 17.14235 | 37468 ft | 406 kts | 76° |
| 2026-04-29 18:26 | 56.16933 | 17.24303 | 37473 ft | 406 kts | 76° |
| 2026-04-29 18:27 | 56.17547 | 17.34374 | 37467 ft | 406 kts | 76° |
| 2026-04-29 18:27 | 56.18156 | 17.44447 | 37472 ft | 405 kts | 76° |
| 2026-04-29 18:28 | 56.18754 | 17.54511 | 37468 ft | 406 kts | 76° |
| 2026-04-29 18:28 | 56.19347 | 17.64590 | 37469 ft | 406 kts | 76° |
| 2026-04-29 18:29 | 56.19928 | 17.74686 | 37469 ft | 407 kts | 76° |
| 2026-04-29 18:29 | 56.20500 | 17.84785 | 37469 ft | 407 kts | 76° |
| 2026-04-29 18:30 | 56.21069 | 17.94832 | 37472 ft | 407 kts | 76° |
| 2026-04-29 18:30 | 56.21628 | 18.04954 | 37476 ft | 406 kts | 76° |
| 2026-04-29 18:31 | 56.22175 | 18.15059 | 37474 ft | 406 kts | 76° |
| 2026-04-29 18:31 | 56.22710 | 18.25178 | 37472 ft | 407 kts | 76° |
| 2026-04-29 18:32 | 56.23633 | 18.35098 | 37469 ft | 401 kts | 70° |
| 2026-04-29 18:32 | 56.25322 | 18.49825 | 37467 ft | 401 kts | 70° |
| 2026-04-29 18:33 | 56.26434 | 18.59646 | 37476 ft | 401 kts | 71° |
| 2026-04-29 18:33 | 56.27534 | 18.69501 | 37470 ft | 401 kts | 71° |
| 2026-04-29 18:34 | 56.28443 | 18.77682 | 37459 ft | 401 kts | 71° |
| 2026-04-29 18:34 | 56.29437 | 18.89331 | 37457 ft | 412 kts | 82° |
| 2026-04-29 18:35 | 56.29201 | 18.94539 | 37454 ft | 424 kts | 91° |
| 2026-04-29 18:35 | 56.28567 | 18.99759 | 37455 ft | 428 kts | 94° |
| 2026-04-29 18:35 | 56.27255 | 19.10206 | 37457 ft | 428 kts | 94° |
| 2026-04-29 18:36 | 56.25943 | 19.20664 | 37461 ft | 429 kts | 94° |
| 2026-04-29 18:36 | 56.24420 | 19.31080 | 37468 ft | 438 kts | 102° |
| 2026-04-29 18:37 | 56.22215 | 19.41297 | 37467 ft | 439 kts | 102° |
| 2026-04-29 18:37 | 56.19988 | 19.51490 | 37462 ft | 439 kts | 102° |
| 2026-04-29 18:38 | 56.17749 | 19.61687 | 37461 ft | 439 kts | 102° |
| 2026-04-29 18:38 | 56.15525 | 19.71814 | 37458 ft | 439 kts | 102° |
| 2026-04-29 18:39 | 56.13273 | 19.82006 | 37466 ft | 439 kts | 103° |
| 2026-04-29 18:39 | 56.11011 | 19.92174 | 37458 ft | 439 kts | 103° |
| 2026-04-29 18:40 | 56.08739 | 20.02334 | 37460 ft | 440 kts | 103° |
| 2026-04-29 18:40 | 56.06454 | 20.12508 | 37462 ft | 440 kts | 103° |
| 2026-04-29 18:41 | 56.01866 | 20.32830 | 37453 ft | 440 kts | 103° |
| 2026-04-29 18:42 | 55.99561 | 20.42935 | 37444 ft | 439 kts | 103° |
| 2026-04-29 18:42 | 55.97249 | 20.53044 | 37448 ft | 440 kts | 104° |
| 2026-04-29 18:43 | 55.94928 | 20.63153 | 37439 ft | 440 kts | 104° |
| 2026-04-29 18:43 | 55.92597 | 20.73244 | 37436 ft | 441 kts | 104° |
| 2026-04-29 18:44 | 55.90255 | 20.83338 | 37435 ft | 440 kts | 104° |
| 2026-04-29 18:44 | 55.87912 | 20.93422 | 37429 ft | 440 kts | 104° |
| 2026-04-29 18:45 | 55.85559 | 21.03490 | 37425 ft | 441 kts | 104° |
| 2026-04-29 18:45 | 55.83591 | 21.11846 | 37427 ft | 441 kts | 104° |
| 2026-04-29 18:46 | 55.81208 | 21.21913 | 37434 ft | 442 kts | 105° |
| 2026-04-29 18:46 | 55.78820 | 21.31981 | 37433 ft | 442 kts | 105° |
| 2026-04-29 18:47 | 55.76427 | 21.42018 | 37428 ft | 441 kts | 105° |
| 2026-04-29 18:47 | 55.74030 | 21.52040 | 37431 ft | 441 kts | 105° |
| 2026-04-29 18:48 | 55.71622 | 21.62048 | 37422 ft | 441 kts | 105° |
| 2026-04-29 18:48 | 55.69200 | 21.72046 | 37424 ft | 441 kts | 105° |
| 2026-04-29 18:49 | 55.66772 | 21.82040 | 37425 ft | 442 kts | 106° |
| 2026-04-29 18:49 | 55.64349 | 21.91957 | 37416 ft | 442 kts | 106° |
| 2026-04-29 18:50 | 55.61906 | 22.01940 | 37407 ft | 442 kts | 106° |
| 2026-04-29 18:50 | 55.59439 | 22.11979 | 37407 ft | 443 kts | 106° |
| 2026-04-29 18:51 | 55.56967 | 22.21971 | 37403 ft | 443 kts | 106° |
| 2026-04-29 18:51 | 55.54504 | 22.31867 | 37406 ft | 443 kts | 106° |
| 2026-04-29 18:52 | 55.52020 | 22.41821 | 37400 ft | 443 kts | 106° |
| 2026-04-29 18:52 | 55.50772 | 22.46811 | 37246 ft | 444 kts | 106° |
| 2026-04-29 18:52 | 55.49527 | 22.51770 | 36983 ft | 442 kts | 106° |
| 2026-04-29 18:53 | 55.48281 | 22.56720 | 36684 ft | 441 kts | 106° |
| 2026-04-29 18:53 | 55.47031 | 22.61677 | 35995 ft | 444 kts | 105° |
| 2026-04-29 18:53 | 55.45773 | 22.66667 | 35289 ft | 447 kts | 105° |
| 2026-04-29 18:53 | 55.44517 | 22.71622 | 34750 ft | 437 kts | 105° |
| 2026-04-29 18:54 | 55.43283 | 22.76435 | 34319 ft | 426 kts | 104° |
| 2026-04-29 18:54 | 55.42074 | 22.81129 | 33753 ft | 415 kts | 104° |
| 2026-04-29 18:54 | 55.40900 | 22.85692 | 33307 ft | 402 kts | 104° |
| 2026-04-29 18:54 | 55.39765 | 22.90116 | 32856 ft | 391 kts | 103° |
| 2026-04-29 18:55 | 55.38666 | 22.94415 | 32407 ft | 380 kts | 103° |
| 2026-04-29 18:55 | 55.37592 | 22.98633 | 31958 ft | 377 kts | 103° |
| 2026-04-29 18:55 | 55.36523 | 23.02838 | 31535 ft | 376 kts | 103° |
| 2026-04-29 18:55 | 55.35454 | 23.07025 | 31107 ft | 375 kts | 103° |
| 2026-04-29 18:56 | 55.34389 | 23.11187 | 30680 ft | 374 kts | 103° |
| 2026-04-29 18:56 | 55.33319 | 23.15346 | 30222 ft | 373 kts | 103° |
| 2026-04-29 18:56 | 55.32248 | 23.19479 | 29763 ft | 370 kts | 103° |
| 2026-04-29 18:56 | 55.31193 | 23.23534 | 29370 ft | 368 kts | 103° |
| 2026-04-29 18:57 | 55.30118 | 23.27651 | 28982 ft | 366 kts | 103° |
| 2026-04-29 18:57 | 55.29062 | 23.31702 | 28557 ft | 364 kts | 103° |
| 2026-04-29 18:57 | 55.28028 | 23.35667 | 28172 ft | 361 kts | 104° |
| 2026-04-29 18:57 | 55.26987 | 23.39643 | 27788 ft | 357 kts | 104° |
| 2026-04-29 18:58 | 55.25952 | 23.43583 | 27411 ft | 354 kts | 104° |
| 2026-04-29 18:58 | 55.24929 | 23.47485 | 27045 ft | 350 kts | 104° |
| 2026-04-29 18:58 | 55.23919 | 23.51337 | 26682 ft | 347 kts | 104° |
| 2026-04-29 18:58 | 55.22914 | 23.55164 | 26321 ft | 344 kts | 104° |
| 2026-04-29 18:59 | 55.21916 | 23.58960 | 25958 ft | 342 kts | 104° |
| 2026-04-29 18:59 | 55.20923 | 23.62734 | 25593 ft | 340 kts | 105° |
| 2026-04-29 18:59 | 55.19935 | 23.66482 | 25228 ft | 339 kts | 105° |
| 2026-04-29 18:59 | 55.18950 | 23.70215 | 24868 ft | 337 kts | 105° |
| 2026-04-29 19:00 | 55.17967 | 23.73928 | 24535 ft | 335 kts | 105° |
| 2026-04-29 19:00 | 55.16984 | 23.77631 | 24118 ft | 335 kts | 106° |
| 2026-04-29 19:00 | 55.16005 | 23.81318 | 23700 ft | 334 kts | 107° |
| 2026-04-29 19:00 | 55.15026 | 23.84997 | 23300 ft | 333 kts | 107° |
| 2026-04-29 19:01 | 55.14049 | 23.88666 | 22906 ft | 332 kts | 107° |
| 2026-04-29 19:01 | 55.13075 | 23.92313 | 22514 ft | 331 kts | 107° |
| 2026-04-29 19:01 | 55.12102 | 23.95948 | 22101 ft | 329 kts | 107° |
| 2026-04-29 19:01 | 55.11133 | 23.99566 | 21722 ft | 328 kts | 108° |
| 2026-04-29 19:02 | 55.10163 | 24.03171 | 21323 ft | 328 kts | 108° |
| 2026-04-29 19:02 | 55.09511 | 24.05608 | 21074 ft | 342 kts | 108° |
| 2026-04-29 19:02 | 55.08144 | 24.10720 | 20551 ft | 349 kts | 109° |
| 2026-04-29 19:02 | 55.07109 | 24.14560 | 20166 ft | 349 kts | 109° |
| 2026-04-29 19:03 | 55.06073 | 24.18383 | 19794 ft | 349 kts | 109° |
| 2026-04-29 19:03 | 55.05036 | 24.22197 | 19439 ft | 347 kts | 110° |
| 2026-04-29 19:03 | 55.03999 | 24.26000 | 19076 ft | 347 kts | 110° |
| 2026-04-29 19:03 | 55.02963 | 24.29793 | 18714 ft | 346 kts | 110° |
| 2026-04-29 19:04 | 55.01947 | 24.33521 | 18316 ft | 344 kts | 110° |
| 2026-04-29 19:04 | 55.00921 | 24.37280 | 17896 ft | 343 kts | 110° |
| 2026-04-29 19:04 | 54.99902 | 24.41016 | 17493 ft | 340 kts | 110° |
| 2026-04-29 19:04 | 54.98891 | 24.44719 | 17086 ft | 338 kts | 110° |
| 2026-04-29 19:05 | 54.97881 | 24.48412 | 16668 ft | 336 kts | 110° |
| 2026-04-29 19:05 | 54.96881 | 24.52064 | 16286 ft | 334 kts | 110° |
| 2026-04-29 19:05 | 54.95883 | 24.55699 | 15900 ft | 332 kts | 110° |
| 2026-04-29 19:05 | 54.94886 | 24.59308 | 15520 ft | 330 kts | 110° |
| 2026-04-29 19:06 | 54.93894 | 24.62893 | 15143 ft | 328 kts | 110° |
| 2026-04-29 19:06 | 54.92909 | 24.66458 | 14769 ft | 326 kts | 110° |
| 2026-04-29 19:06 | 54.90768 | 24.73387 | 14022 ft | 324 kts | 115° |
| 2026-04-29 19:07 | 54.89613 | 24.76744 | 13612 ft | 323 kts | 116° |
| 2026-04-29 19:07 | 54.88823 | 24.78991 | 13329 ft | 321 kts | 117° |
| 2026-04-29 19:07 | 54.87289 | 24.83357 | 12811 ft | 318 kts | 117° |
| 2026-04-29 19:07 | 54.86150 | 24.86637 | 12399 ft | 316 kts | 117° |
| 2026-04-29 19:08 | 54.84875 | 24.89740 | 12004 ft | 318 kts | 130° |
| 2026-04-29 19:08 | 54.83162 | 24.92112 | 11597 ft | 313 kts | 148° |
| 2026-04-29 19:08 | 54.81151 | 24.93500 | 11210 ft | 312 kts | 166° |
| 2026-04-29 19:08 | 54.78997 | 24.93861 | 10833 ft | 308 kts | 179° |
| 2026-04-29 19:09 | 54.76911 | 24.93903 | 10445 ft | 291 kts | 178° |
| 2026-04-29 19:09 | 54.74941 | 24.93953 | 10048 ft | 276 kts | 178° |
| 2026-04-29 19:09 | 54.73064 | 24.94018 | 9636 ft | 264 kts | 178° |
| 2026-04-29 19:09 | 54.71250 | 24.94087 | 9231 ft | 259 kts | 178° |
| 2026-04-29 19:10 | 54.69483 | 24.94151 | 8822 ft | 249 kts | 179° |
| 2026-04-29 19:10 | 54.67762 | 24.94208 | 8425 ft | 246 kts | 179° |
| 2026-04-29 19:10 | 54.66064 | 24.94267 | 8067 ft | 240 kts | 179° |
| 2026-04-29 19:10 | 54.64404 | 24.94325 | 7635 ft | 237 kts | 179° |
| 2026-04-29 19:11 | 54.62762 | 24.94382 | 7197 ft | 235 kts | 180° |
| 2026-04-29 19:11 | 54.61136 | 24.94440 | 6764 ft | 233 kts | 180° |
| 2026-04-29 19:11 | 54.59530 | 24.94654 | 6304 ft | 231 kts | 170° |
| 2026-04-29 19:11 | 54.58004 | 24.95472 | 5858 ft | 229 kts | 155° |
| 2026-04-29 19:12 | 54.56630 | 24.96813 | 5411 ft | 226 kts | 147° |
| 2026-04-29 19:12 | 54.55295 | 24.98240 | 4959 ft | 225 kts | 147° |
| 2026-04-29 19:12 | 54.53967 | 24.99646 | 4487 ft | 223 kts | 147° |
| 2026-04-29 19:12 | 54.53093 | 25.00571 | 4194 ft | 222 kts | 147° |
| 2026-04-29 19:13 | 54.51339 | 25.02426 | 3600 ft | 220 kts | 147° |
| 2026-04-29 19:13 | 54.50038 | 25.03806 | 3173 ft | 218 kts | 146° |
| 2026-04-29 19:13 | 54.48889 | 25.05429 | 3006 ft | 210 kts | 131° |
| 2026-04-29 19:13 | 54.48013 | 25.07409 | 3011 ft | 207 kts | 118° |
| 2026-04-29 19:14 | 54.47412 | 25.09632 | 3013 ft | 204 kts | 109° |
| 2026-04-29 19:14 | 54.47044 | 25.11941 | 3023 ft | 193 kts | 91° |
| 2026-04-29 19:14 | 54.47110 | 25.14076 | 3016 ft | 167 kts | 73° |
| 2026-04-29 19:14 | 54.47481 | 25.15855 | 3006 ft | 152 kts | 57° |
| 2026-04-29 19:15 | 54.48075 | 25.17305 | 3008 ft | 146 kts | 42° |
| 2026-04-29 19:15 | 54.48839 | 25.18403 | 3010 ft | 141 kts | 28° |
| 2026-04-29 19:15 | 54.49716 | 25.19123 | 3011 ft | 139 kts | 18° |
| 2026-04-29 19:15 | 54.50616 | 25.19742 | 3011 ft | 139 kts | 18° |
| 2026-04-29 19:16 | 54.51520 | 25.20364 | 2940 ft | 140 kts | 18° |
| 2026-04-29 19:16 | 54.52421 | 25.20984 | 2803 ft | 139 kts | 18° |
| 2026-04-29 19:16 | 54.53288 | 25.21583 | 2650 ft | 133 kts | 18° |
| 2026-04-29 19:16 | 54.54130 | 25.22163 | 2463 ft | 129 kts | 18° |
| 2026-04-29 19:17 | 54.54956 | 25.22732 | 2273 ft | 127 kts | 18° |
| 2026-04-29 19:17 | 54.55776 | 25.23297 | 2103 ft | 127 kts | 18° |
| 2026-04-29 19:17 | 54.56603 | 25.23868 | 1922 ft | 127 kts | 18° |
| 2026-04-29 19:17 | 54.57413 | 25.24427 | 1750 ft | 127 kts | 18° |
| 2026-04-29 19:18 | 54.58237 | 25.24995 | 1556 ft | 128 kts | 19° |
| 2026-04-29 19:18 | 54.58796 | 25.25381 | 1418 ft | 129 kts | 19° |
| 2026-04-29 19:18 | 54.59913 | 25.26153 | 1170 ft | 132 kts | 20° |
| 2026-04-29 19:18 | 54.60768 | 25.26744 | 988 ft | 133 kts | 20° |
| 2026-04-29 19:19 | 54.61626 | 25.27340 | 805 ft | 133 kts | 20° |
| 2026-04-29 19:19 | 54.62489 | 25.27938 | 639 ft | 133 kts | 20° |
| 2026-04-29 19:19 | 54.63262 | 25.28469 | 619 ft | 90 kts | 22° |
| 2026-04-29 19:19 | 54.63581 | 25.28686 | 614 ft | 25 kts | 21° |
| 2026-04-29 19:20 | 54.63752 | 25.28755 | 624 ft | 27 kts | 356° |
| 2026-04-29 19:20 | 54.63927 | 25.28728 | 617 ft | 18 kts | 354° |
| 2026-04-29 19:20 | 54.64045 | 25.28707 | 622 ft | 14 kts | 354° |
| 2026-04-29 19:20 | 54.64146 | 25.28690 | 618 ft | 16 kts | 354° |
| 2026-04-29 19:21 | 54.64260 | 25.28670 | 623 ft | 17 kts | 354° |
| 2026-04-29 19:21 | 54.64316 | 25.28625 | 626 ft | 6 kts | 280° |
| 2026-04-29 19:21 | 54.64327 | 25.28551 | 628 ft | 5 kts | 335° |
| 2026-04-29 19:21 | 54.64366 | 25.28545 | 628 ft | 0 kts | 358° |
| 2026-04-29 19:22 | 54.64367 | 25.28545 | 628 ft | 0 kts | 358° |